Delta Virtual Airport Information Service

Greenville-Spartanburg International Airport

ICAO: KGSP Country: United States
Latitude: 34.8957 Longitude: -82.2188
Latest Arrival : AAL5016 (1A) (KPHL-KGSP) Latest Departure : DAL2886 (B) (KGSP-KATL)


WX CaptureLIVE
Data provided by noaa.gov | Fetched at 01:45:55

METAR : KGSP 300622Z AUTO 05004KT 6SM RA BR SCT020 BKN029 OVC048 10/09 A3011 RMK AO2 P0006 T01000089

TAF : KGSP 300622Z AUTO 05004KT 6SM RA BR SCT020 BKN029 OVC048 10/09 A3011 RMK AO2 P0006 T01000089


Runway Data for KGSP
Data provided by openaviationdata.com

Runway ID Mag Var Hdg Length Elevation Surface ILS Freq ILS Id ILS Slope
4 -5 37° 11010 ft 919 ft Concrete 109.3 IGSP 3
22 -5 217° 11010 ft 919 ft Concrete 110.7 ILMJ 3

Greenville-Spartanburg International Airport, United States
Use only for reference purposes



Not for navigational purposes.